sensor_id;sensor_type;location;lat;lon;timestamp;temperature;humidity
8896;DHT22;4484;48.928;10.066;2024-02-21T00:00:39;4.50;99.90
8896;DHT22;4484;48.928;10.066;2024-02-21T00:03:07;4.50;99.90
8896;DHT22;4484;48.928;10.066;2024-02-21T00:05:34;4.50;99.90
8896;DHT22;4484;48.928;10.066;2024-02-21T00:08:02;4.50;99.90
8896;DHT22;4484;48.928;10.066;2024-02-21T00:10:30;4.50;99.90
8896;DHT22;4484;48.928;10.066;2024-02-21T00:12:59;4.50;99.90
8896;DHT22;4484;48.928;10.066;2024-02-21T00:15:26;4.50;99.90
8896;DHT22;4484;48.928;10.066;2024-02-21T00:17:53;4.50;99.90
8896;DHT22;4484;48.928;10.066;2024-02-21T00:20:20;4.50;99.90
8896;DHT22;4484;48.928;10.066;2024-02-21T00:22:47;4.50;99.90
8896;DHT22;4484;48.928;10.066;2024-02-21T00:25:14;4.50;99.90
8896;DHT22;4484;48.928;10.066;2024-02-21T00:27:41;4.50;99.90
8896;DHT22;4484;48.928;10.066;2024-02-21T00:30:08;4.50;99.90
8896;DHT22;4484;48.928;10.066;2024-02-21T00:32:35;4.40;99.90
8896;DHT22;4484;48.928;10.066;2024-02-21T00:35:02;4.40;99.90
8896;DHT22;4484;48.928;10.066;2024-02-21T00:37:30;4.50;99.90
8896;DHT22;4484;48.928;10.066;2024-02-21T00:39:57;4.40;99.90
8896;DHT22;4484;48.928;10.066;2024-02-21T00:42:24;4.50;99.90
8896;DHT22;4484;48.928;10.066;2024-02-21T00:44:51;4.40;99.90
8896;DHT22;4484;48.928;10.066;2024-02-21T00:47:18;4.50;99.90
8896;DHT22;4484;48.928;10.066;2024-02-21T00:49:44;4.50;99.90
8896;DHT22;4484;48.928;10.066;2024-02-21T00:52:11;4.40;99.90
8896;DHT22;4484;48.928;10.066;2024-02-21T00:54:38;4.40;99.90
8896;DHT22;4484;48.928;10.066;2024-02-21T00:57:18;4.50;99.90
8896;DHT22;4484;48.928;10.066;2024-02-21T00:59:45;4.40;99.90
8896;DHT22;4484;48.928;10.066;2024-02-21T01:02:12;4.40;99.90
8896;DHT22;4484;48.928;10.066;2024-02-21T01:04:39;4.40;99.90
8896;DHT22;4484;48.928;10.066;2024-02-21T01:07:06;4.40;99.90
8896;DHT22;4484;48.928;10.066;2024-02-21T01:09:33;4.40;99.90
8896;DHT22;4484;48.928;10.066;2024-02-21T01:12:00;4.40;99.90
8896;DHT22;4484;48.928;10.066;2024-02-21T01:14:27;4.40;99.90
8896;DHT22;4484;48.928;10.066;2024-02-21T01:16:54;4.40;99.90
8896;DHT22;4484;48.928;10.066;2024-02-21T01:19:21;4.40;99.90
8896;DHT22;4484;48.928;10.066;2024-02-21T01:21:48;4.30;99.90
8896;DHT22;4484;48.928;10.066;2024-02-21T01:24:15;4.40;99.90
8896;DHT22;4484;48.928;10.066;2024-02-21T01:26:42;4.30;99.90
8896;DHT22;4484;48.928;10.066;2024-02-21T01:29:09;4.40;99.90
8896;DHT22;4484;48.928;10.066;2024-02-21T01:31:36;4.30;99.90
8896;DHT22;4484;48.928;10.066;2024-02-21T01:34:02;4.40;99.90
8896;DHT22;4484;48.928;10.066;2024-02-21T01:36:29;4.40;99.90
8896;DHT22;4484;48.928;10.066;2024-02-21T01:38:56;4.40;99.90
8896;DHT22;4484;48.928;10.066;2024-02-21T01:41:23;4.40;99.90
8896;DHT22;4484;48.928;10.066;2024-02-21T01:43:50;4.40;99.90
8896;DHT22;4484;48.928;10.066;2024-02-21T01:46:17;4.40;99.90
8896;DHT22;4484;48.928;10.066;2024-02-21T01:48:44;4.50;99.90
8896;DHT22;4484;48.928;10.066;2024-02-21T01:51:13;4.50;99.90
8896;DHT22;4484;48.928;10.066;2024-02-21T01:53:43;4.50;99.90
8896;DHT22;4484;48.928;10.066;2024-02-21T01:56:10;4.50;99.90
8896;DHT22;4484;48.928;10.066;2024-02-21T01:58:40;4.50;99.90
8896;DHT22;4484;48.928;10.066;2024-02-21T02:01:08;4.50;99.90
8896;DHT22;4484;48.928;10.066;2024-02-21T02:03:36;4.50;99.90
8896;DHT22;4484;48.928;10.066;2024-02-21T02:06:05;4.50;99.90
8896;DHT22;4484;48.928;10.066;2024-02-21T02:08:33;4.50;99.90
8896;DHT22;4484;48.928;10.066;2024-02-21T02:11:00;4.50;99.90
8896;DHT22;4484;48.928;10.066;2024-02-21T02:13:28;4.50;99.90
8896;DHT22;4484;48.928;10.066;2024-02-21T02:15:55;4.50;99.90
8896;DHT22;4484;48.928;10.066;2024-02-21T02:18:22;4.50;99.90
8896;DHT22;4484;48.928;10.066;2024-02-21T02:20:49;4.50;99.90
8896;DHT22;4484;48.928;10.066;2024-02-21T02:25:50;4.50;99.90
8896;DHT22;4484;48.928;10.066;2024-02-21T02:28:21;4.50;99.90
8896;DHT22;4484;48.928;10.066;2024-02-21T02:30:48;4.50;99.90
8896;DHT22;4484;48.928;10.066;2024-02-21T02:33:16;4.50;99.90
8896;DHT22;4484;48.928;10.066;2024-02-21T02:35:47;4.40;99.90
8896;DHT22;4484;48.928;10.066;2024-02-21T02:38:13;4.40;99.90
8896;DHT22;4484;48.928;10.066;2024-02-21T02:40:41;4.40;99.90
8896;DHT22;4484;48.928;10.066;2024-02-21T02:43:09;4.40;99.90
8896;DHT22;4484;48.928;10.066;2024-02-21T02:45:36;4.50;99.90
8896;DHT22;4484;48.928;10.066;2024-02-21T02:48:03;4.40;99.90
8896;DHT22;4484;48.928;10.066;2024-02-21T02:50:31;4.40;99.90
8896;DHT22;4484;48.928;10.066;2024-02-21T02:52:58;4.40;99.90
8896;DHT22;4484;48.928;10.066;2024-02-21T02:55:25;4.40;99.90
8896;DHT22;4484;48.928;10.066;2024-02-21T02:57:53;4.40;99.90
8896;DHT22;4484;48.928;10.066;2024-02-21T03:00:20;4.40;99.90
8896;DHT22;4484;48.928;10.066;2024-02-21T03:02:49;4.40;99.90
8896;DHT22;4484;48.928;10.066;2024-02-21T03:05:18;4.40;99.90
8896;DHT22;4484;48.928;10.066;2024-02-21T03:07:46;4.40;99.90
8896;DHT22;4484;48.928;10.066;2024-02-21T03:10:14;4.40;99.90
8896;DHT22;4484;48.928;10.066;2024-02-21T03:12:43;4.40;99.90
8896;DHT22;4484;48.928;10.066;2024-02-21T03:15:10;4.40;99.90
8896;DHT22;4484;48.928;10.066;2024-02-21T03:17:37;4.40;99.90
8896;DHT22;4484;48.928;10.066;2024-02-21T03:20:05;4.40;99.90
8896;DHT22;4484;48.928;10.066;2024-02-21T03:22:32;4.40;99.90
8896;DHT22;4484;48.928;10.066;2024-02-21T03:24:59;4.40;99.90
8896;DHT22;4484;48.928;10.066;2024-02-21T03:27:26;4.40;99.90
8896;DHT22;4484;48.928;10.066;2024-02-21T03:29:53;4.40;99.90
8896;DHT22;4484;48.928;10.066;2024-02-21T03:32:20;4.40;99.90
8896;DHT22;4484;48.928;10.066;2024-02-21T03:34:47;4.40;99.90
8896;DHT22;4484;48.928;10.066;2024-02-21T03:37:14;4.40;99.90
8896;DHT22;4484;48.928;10.066;2024-02-21T03:39:41;4.40;99.90
8896;DHT22;4484;48.928;10.066;2024-02-21T03:42:08;4.40;99.90
8896;DHT22;4484;48.928;10.066;2024-02-21T03:44:36;4.40;99.90
8896;DHT22;4484;48.928;10.066;2024-02-21T03:47:03;4.40;99.90
8896;DHT22;4484;48.928;10.066;2024-02-21T03:49:30;4.40;99.90
8896;DHT22;4484;48.928;10.066;2024-02-21T03:51:57;4.40;99.90
8896;DHT22;4484;48.928;10.066;2024-02-21T03:54:24;4.40;99.90
8896;DHT22;4484;48.928;10.066;2024-02-21T03:56:51;4.40;99.90
8896;DHT22;4484;48.928;10.066;2024-02-21T03:59:18;4.40;99.90
8896;DHT22;4484;48.928;10.066;2024-02-21T04:01:45;4.40;99.90
8896;DHT22;4484;48.928;10.066;2024-02-21T04:04:11;4.40;99.90
8896;DHT22;4484;48.928;10.066;2024-02-21T04:06:48;4.40;99.90
8896;DHT22;4484;48.928;10.066;2024-02-21T04:09:15;4.40;99.90
8896;DHT22;4484;48.928;10.066;2024-02-21T04:11:42;4.40;99.90
8896;DHT22;4484;48.928;10.066;2024-02-21T04:14:09;4.30;99.90
8896;DHT22;4484;48.928;10.066;2024-02-21T04:16:38;4.30;99.90
8896;DHT22;4484;48.928;10.066;2024-02-21T04:19:06;4.30;99.90
8896;DHT22;4484;48.928;10.066;2024-02-21T04:21:33;4.30;99.90
8896;DHT22;4484;48.928;10.066;2024-02-21T04:24:00;4.30;99.90
8896;DHT22;4484;48.928;10.066;2024-02-21T04:26:28;4.30;99.90
8896;DHT22;4484;48.928;10.066;2024-02-21T04:28:55;4.30;99.90
8896;DHT22;4484;48.928;10.066;2024-02-21T04:31:22;4.30;99.90
8896;DHT22;4484;48.928;10.066;2024-02-21T04:33:49;4.30;99.90
8896;DHT22;4484;48.928;10.066;2024-02-21T04:36:16;4.30;99.90
8896;DHT22;4484;48.928;10.066;2024-02-21T04:38:43;4.30;99.90
8896;DHT22;4484;48.928;10.066;2024-02-21T04:41:10;4.30;99.90
8896;DHT22;4484;48.928;10.066;2024-02-21T04:43:36;4.30;99.90
8896;DHT22;4484;48.928;10.066;2024-02-21T04:46:04;4.20;99.90
8896;DHT22;4484;48.928;10.066;2024-02-21T04:48:31;4.20;99.90
8896;DHT22;4484;48.928;10.066;2024-02-21T04:50:58;4.10;99.90
8896;DHT22;4484;48.928;10.066;2024-02-21T04:53:25;4.10;99.90
8896;DHT22;4484;48.928;10.066;2024-02-21T04:55:51;4.00;99.90
8896;DHT22;4484;48.928;10.066;2024-02-21T04:58:18;4.00;99.90
8896;DHT22;4484;48.928;10.066;2024-02-21T05:00:45;4.00;99.90
8896;DHT22;4484;48.928;10.066;2024-02-21T05:03:12;4.00;99.90
8896;DHT22;4484;48.928;10.066;2024-02-21T05:05:39;3.90;99.90
8896;DHT22;4484;48.928;10.066;2024-02-21T05:08:06;3.90;99.90
8896;DHT22;4484;48.928;10.066;2024-02-21T05:10:33;3.80;99.90
8896;DHT22;4484;48.928;10.066;2024-02-21T05:13:00;3.80;99.90
8896;DHT22;4484;48.928;10.066;2024-02-21T05:15:27;3.70;99.90
8896;DHT22;4484;48.928;10.066;2024-02-21T05:17:54;3.60;99.90
8896;DHT22;4484;48.928;10.066;2024-02-21T05:20:21;3.60;99.90
8896;DHT22;4484;48.928;10.066;2024-02-21T05:22:48;3.50;99.90
8896;DHT22;4484;48.928;10.066;2024-02-21T05:25:15;3.50;99.90
8896;DHT22;4484;48.928;10.066;2024-02-21T05:27:42;3.50;99.90
8896;DHT22;4484;48.928;10.066;2024-02-21T05:30:09;3.40;99.90
8896;DHT22;4484;48.928;10.066;2024-02-21T05:32:36;3.40;99.90
8896;DHT22;4484;48.928;10.066;2024-02-21T05:35:03;3.40;99.90
8896;DHT22;4484;48.928;10.066;2024-02-21T05:37:30;3.40;99.90
8896;DHT22;4484;48.928;10.066;2024-02-21T05:39:57;3.40;99.90
8896;DHT22;4484;48.928;10.066;2024-02-21T05:42:24;3.40;99.90
8896;DHT22;4484;48.928;10.066;2024-02-21T05:44:51;3.40;99.90
8896;DHT22;4484;48.928;10.066;2024-02-21T05:47:18;3.40;99.90
8896;DHT22;4484;48.928;10.066;2024-02-21T05:49:47;3.30;99.90
8896;DHT22;4484;48.928;10.066;2024-02-21T05:52:14;3.40;99.90
8896;DHT22;4484;48.928;10.066;2024-02-21T05:54:41;3.40;99.90
8896;DHT22;4484;48.928;10.066;2024-02-21T05:57:08;3.30;99.90
8896;DHT22;4484;48.928;10.066;2024-02-21T05:59:38;3.30;99.90
8896;DHT22;4484;48.928;10.066;2024-02-21T06:02:06;3.30;99.90
8896;DHT22;4484;48.928;10.066;2024-02-21T06:04:33;3.20;99.90
8896;DHT22;4484;48.928;10.066;2024-02-21T06:07:01;3.20;99.90
8896;DHT22;4484;48.928;10.066;2024-02-21T06:09:28;3.10;99.90
8896;DHT22;4484;48.928;10.066;2024-02-21T06:11:55;3.10;99.90
8896;DHT22;4484;48.928;10.066;2024-02-21T06:14:22;3.10;99.90
8896;DHT22;4484;48.928;10.066;2024-02-21T06:16:49;3.00;99.90
8896;DHT22;4484;48.928;10.066;2024-02-21T06:19:16;3.00;99.90
8896;DHT22;4484;48.928;10.066;2024-02-21T06:21:43;3.00;99.90
8896;DHT22;4484;48.928;10.066;2024-02-21T06:24:10;3.00;99.90
8896;DHT22;4484;48.928;10.066;2024-02-21T06:26:40;3.00;99.90
8896;DHT22;4484;48.928;10.066;2024-02-21T06:29:07;3.00;99.90
8896;DHT22;4484;48.928;10.066;2024-02-21T06:31:35;3.00;99.90
8896;DHT22;4484;48.928;10.066;2024-02-21T06:34:02;3.00;99.90
8896;DHT22;4484;48.928;10.066;2024-02-21T06:36:29;3.00;99.90
8896;DHT22;4484;48.928;10.066;2024-02-21T06:38:57;3.00;99.90
8896;DHT22;4484;48.928;10.066;2024-02-21T06:41:24;3.00;99.90
8896;DHT22;4484;48.928;10.066;2024-02-21T06:43:51;3.00;99.90
8896;DHT22;4484;48.928;10.066;2024-02-21T06:46:27;3.00;99.90
8896;DHT22;4484;48.928;10.066;2024-02-21T06:49:01;3.10;99.90
8896;DHT22;4484;48.928;10.066;2024-02-21T06:51:30;3.10;99.90
8896;DHT22;4484;48.928;10.066;2024-02-21T06:53:57;3.10;99.90
8896;DHT22;4484;48.928;10.066;2024-02-21T06:56:24;3.10;99.90
8896;DHT22;4484;48.928;10.066;2024-02-21T06:58:56;3.10;99.90
8896;DHT22;4484;48.928;10.066;2024-02-21T07:01:24;3.20;99.90
8896;DHT22;4484;48.928;10.066;2024-02-21T07:03:51;3.20;99.90
8896;DHT22;4484;48.928;10.066;2024-02-21T07:06:18;3.20;99.90
8896;DHT22;4484;48.928;10.066;2024-02-21T07:08:45;3.20;99.90
8896;DHT22;4484;48.928;10.066;2024-02-21T07:11:12;3.30;99.90
8896;DHT22;4484;48.928;10.066;2024-02-21T07:13:39;3.30;99.90
8896;DHT22;4484;48.928;10.066;2024-02-21T07:16:07;3.40;99.90
8896;DHT22;4484;48.928;10.066;2024-02-21T07:18:34;3.40;99.90
8896;DHT22;4484;48.928;10.066;2024-02-21T07:21:01;3.50;99.90
8896;DHT22;4484;48.928;10.066;2024-02-21T07:23:27;3.50;99.90
8896;DHT22;4484;48.928;10.066;2024-02-21T07:25:54;3.60;99.90
8896;DHT22;4484;48.928;10.066;2024-02-21T07:28:21;3.70;99.90
8896;DHT22;4484;48.928;10.066;2024-02-21T07:30:48;3.80;99.90
8896;DHT22;4484;48.928;10.066;2024-02-21T07:33:15;3.90;99.90
8896;DHT22;4484;48.928;10.066;2024-02-21T07:35:42;4.00;99.90
8896;DHT22;4484;48.928;10.066;2024-02-21T07:38:12;4.20;99.90
8896;DHT22;4484;48.928;10.066;2024-02-21T07:40:39;4.30;99.90
8896;DHT22;4484;48.928;10.066;2024-02-21T07:43:06;4.40;99.90
8896;DHT22;4484;48.928;10.066;2024-02-21T07:45:33;4.40;99.90
8896;DHT22;4484;48.928;10.066;2024-02-21T07:48:00;4.40;99.90
8896;DHT22;4484;48.928;10.066;2024-02-21T07:50:27;4.50;99.90
8896;DHT22;4484;48.928;10.066;2024-02-21T07:52:54;4.50;99.90
8896;DHT22;4484;48.928;10.066;2024-02-21T07:55:21;4.60;99.90
8896;DHT22;4484;48.928;10.066;2024-02-21T07:57:48;4.60;99.90
8896;DHT22;4484;48.928;10.066;2024-02-21T08:00:16;4.70;99.90
8896;DHT22;4484;48.928;10.066;2024-02-21T08:02:48;4.80;99.90
8896;DHT22;4484;48.928;10.066;2024-02-21T08:05:15;5.00;99.90
8896;DHT22;4484;48.928;10.066;2024-02-21T08:07:42;5.30;99.90
8896;DHT22;4484;48.928;10.066;2024-02-21T08:10:10;5.60;99.90
8896;DHT22;4484;48.928;10.066;2024-02-21T08:12:36;6.00;99.90
8896;DHT22;4484;48.928;10.066;2024-02-21T08:15:04;6.40;99.90
8896;DHT22;4484;48.928;10.066;2024-02-21T08:17:31;6.80;99.90
8896;DHT22;4484;48.928;10.066;2024-02-21T08:19:58;7.30;99.90
8896;DHT22;4484;48.928;10.066;2024-02-21T08:22:25;7.80;99.90
8896;DHT22;4484;48.928;10.066;2024-02-21T08:24:53;8.40;99.90
8896;DHT22;4484;48.928;10.066;2024-02-21T08:27:20;8.80;99.90
8896;DHT22;4484;48.928;10.066;2024-02-21T08:29:47;9.20;99.90
8896;DHT22;4484;48.928;10.066;2024-02-21T08:32:14;9.50;99.90
8896;DHT22;4484;48.928;10.066;2024-02-21T08:34:41;9.80;99.90
8896;DHT22;4484;48.928;10.066;2024-02-21T08:37:08;10.10;99.90
8896;DHT22;4484;48.928;10.066;2024-02-21T08:39:35;10.60;99.90
8896;DHT22;4484;48.928;10.066;2024-02-21T08:42:01;10.70;99.90
8896;DHT22;4484;48.928;10.066;2024-02-21T08:44:29;10.80;99.90
8896;DHT22;4484;48.928;10.066;2024-02-21T08:46:56;10.70;99.90
8896;DHT22;4484;48.928;10.066;2024-02-21T08:49:23;10.70;99.90
8896;DHT22;4484;48.928;10.066;2024-02-21T08:52:00;10.70;99.90
8896;DHT22;4484;48.928;10.066;2024-02-21T08:54:27;10.70;99.90
8896;DHT22;4484;48.928;10.066;2024-02-21T08:56:54;10.70;99.90
8896;DHT22;4484;48.928;10.066;2024-02-21T08:59:21;11.00;99.90
8896;DHT22;4484;48.928;10.066;2024-02-21T09:01:48;11.20;99.90
8896;DHT22;4484;48.928;10.066;2024-02-21T09:04:15;11.30;99.90
8896;DHT22;4484;48.928;10.066;2024-02-21T09:06:42;11.40;99.90
8896;DHT22;4484;48.928;10.066;2024-02-21T09:09:09;11.40;99.90
8896;DHT22;4484;48.928;10.066;2024-02-21T09:11:36;11.40;99.90
8896;DHT22;4484;48.928;10.066;2024-02-21T09:14:04;11.60;99.90
8896;DHT22;4484;48.928;10.066;2024-02-21T09:16:31;11.80;99.90
8896;DHT22;4484;48.928;10.066;2024-02-21T09:18:59;11.80;99.90
8896;DHT22;4484;48.928;10.066;2024-02-21T09:21:27;11.70;99.90
8896;DHT22;4484;48.928;10.066;2024-02-21T09:23:55;11.50;99.90
8896;DHT22;4484;48.928;10.066;2024-02-21T09:26:25;11.40;99.90
8896;DHT22;4484;48.928;10.066;2024-02-21T09:28:52;11.40;99.90
8896;DHT22;4484;48.928;10.066;2024-02-21T09:31:19;11.30;99.90
8896;DHT22;4484;48.928;10.066;2024-02-21T09:33:46;11.30;99.90
8896;DHT22;4484;48.928;10.066;2024-02-21T09:36:13;11.40;99.90
8896;DHT22;4484;48.928;10.066;2024-02-21T09:38:40;11.30;99.90
8896;DHT22;4484;48.928;10.066;2024-02-21T09:41:17;11.40;99.90
8896;DHT22;4484;48.928;10.066;2024-02-21T09:43:51;11.30;99.90
8896;DHT22;4484;48.928;10.066;2024-02-21T09:46:30;11.20;99.90
8896;DHT22;4484;48.928;10.066;2024-02-21T09:49:21;10.90;99.90
8896;DHT22;4484;48.928;10.066;2024-02-21T09:51:54;10.80;99.90
8896;DHT22;4484;48.928;10.066;2024-02-21T09:54:22;10.80;99.90
8896;DHT22;4484;48.928;10.066;2024-02-21T09:56:49;10.80;99.90
8896;DHT22;4484;48.928;10.066;2024-02-21T09:59:16;10.90;99.90
8896;DHT22;4484;48.928;10.066;2024-02-21T10:01:44;10.90;99.90
8896;DHT22;4484;48.928;10.066;2024-02-21T10:04:11;10.90;99.90
8896;DHT22;4484;48.928;10.066;2024-02-21T10:06:38;11.00;99.90
8896;DHT22;4484;48.928;10.066;2024-02-21T10:09:06;11.00;99.90
8896;DHT22;4484;48.928;10.066;2024-02-21T10:11:34;11.10;99.90
8896;DHT22;4484;48.928;10.066;2024-02-21T10:14:05;11.30;99.90
8896;DHT22;4484;48.928;10.066;2024-02-21T10:16:33;11.50;99.90
8896;DHT22;4484;48.928;10.066;2024-02-21T10:19:01;11.80;99.90
8896;DHT22;4484;48.928;10.066;2024-02-21T10:21:28;11.90;99.90
8896;DHT22;4484;48.928;10.066;2024-02-21T10:23:55;12.00;99.90
8896;DHT22;4484;48.928;10.066;2024-02-21T10:26:22;12.10;99.90
8896;DHT22;4484;48.928;10.066;2024-02-21T10:28:49;12.00;99.90
8896;DHT22;4484;48.928;10.066;2024-02-21T10:31:26;11.80;99.90
8896;DHT22;4484;48.928;10.066;2024-02-21T10:33:57;11.70;99.90
8896;DHT22;4484;48.928;10.066;2024-02-21T10:36:25;11.80;99.90
8896;DHT22;4484;48.928;10.066;2024-02-21T10:38:53;11.90;99.90
8896;DHT22;4484;48.928;10.066;2024-02-21T10:41:21;12.10;99.90
8896;DHT22;4484;48.928;10.066;2024-02-21T10:43:53;12.20;99.90
8896;DHT22;4484;48.928;10.066;2024-02-21T10:46:23;12.50;99.90
8896;DHT22;4484;48.928;10.066;2024-02-21T10:49:04;12.90;99.90
8896;DHT22;4484;48.928;10.066;2024-02-21T10:51:34;13.20;99.90
8896;DHT22;4484;48.928;10.066;2024-02-21T10:54:22;13.50;99.90
8896;DHT22;4484;48.928;10.066;2024-02-21T10:56:50;13.80;99.90
8896;DHT22;4484;48.928;10.066;2024-02-21T10:59:18;13.90;99.90
8896;DHT22;4484;48.928;10.066;2024-02-21T11:01:46;14.20;99.90
8896;DHT22;4484;48.928;10.066;2024-02-21T11:04:14;14.60;99.90
8896;DHT22;4484;48.928;10.066;2024-02-21T11:06:42;15.10;99.90
8896;DHT22;4484;48.928;10.066;2024-02-21T11:09:10;15.20;99.90
8896;DHT22;4484;48.928;10.066;2024-02-21T11:11:40;15.40;99.90
8896;DHT22;4484;48.928;10.066;2024-02-21T11:14:20;15.70;99.90
8896;DHT22;4484;48.928;10.066;2024-02-21T11:16:47;16.00;99.90
8896;DHT22;4484;48.928;10.066;2024-02-21T11:19:22;16.20;99.60
8896;DHT22;4484;48.928;10.066;2024-02-21T11:21:50;16.20;97.20
8896;DHT22;4484;48.928;10.066;2024-02-21T11:24:31;16.10;97.70
8896;DHT22;4484;48.928;10.066;2024-02-21T11:27:20;16.00;95.00
8896;DHT22;4484;48.928;10.066;2024-02-21T11:29:49;15.90;94.30
8896;DHT22;4484;48.928;10.066;2024-02-21T11:32:19;15.90;94.70
8896;DHT22;4484;48.928;10.066;2024-02-21T11:35:01;16.00;93.70
8896;DHT22;4484;48.928;10.066;2024-02-21T11:37:31;16.10;94.30
8896;DHT22;4484;48.928;10.066;2024-02-21T11:40:00;16.30;94.30
8896;DHT22;4484;48.928;10.066;2024-02-21T11:42:28;16.00;91.50
8896;DHT22;4484;48.928;10.066;2024-02-21T11:45:00;15.40;91.60
8896;DHT22;4484;48.928;10.066;2024-02-21T11:47:28;15.00;92.30
8896;DHT22;4484;48.928;10.066;2024-02-21T11:49:56;14.70;92.80
8896;DHT22;4484;48.928;10.066;2024-02-21T11:52:25;14.50;92.40
8896;DHT22;4484;48.928;10.066;2024-02-21T11:54:54;14.30;93.80
8896;DHT22;4484;48.928;10.066;2024-02-21T11:57:22;14.20;93.60
8896;DHT22;4484;48.928;10.066;2024-02-21T11:59:51;14.10;95.70
8896;DHT22;4484;48.928;10.066;2024-02-21T12:02:26;14.20;94.20
8896;DHT22;4484;48.928;10.066;2024-02-21T12:04:53;14.20;93.10
8896;DHT22;4484;48.928;10.066;2024-02-21T12:07:21;13.90;92.70
8896;DHT22;4484;48.928;10.066;2024-02-21T12:09:51;13.60;94.00
8896;DHT22;4484;48.928;10.066;2024-02-21T12:12:20;13.50;93.40
8896;DHT22;4484;48.928;10.066;2024-02-21T12:14:57;13.40;93.70
8896;DHT22;4484;48.928;10.066;2024-02-21T12:17:27;13.40;92.50
8896;DHT22;4484;48.928;10.066;2024-02-21T12:19:54;13.30;92.60
8896;DHT22;4484;48.928;10.066;2024-02-21T12:22:21;13.20;92.30
8896;DHT22;4484;48.928;10.066;2024-02-21T12:24:48;13.10;92.60
8896;DHT22;4484;48.928;10.066;2024-02-21T12:27:15;13.00;93.30
8896;DHT22;4484;48.928;10.066;2024-02-21T12:29:42;13.10;94.20
8896;DHT22;4484;48.928;10.066;2024-02-21T12:32:09;13.10;92.60
8896;DHT22;4484;48.928;10.066;2024-02-21T12:34:36;13.10;93.40
8896;DHT22;4484;48.928;10.066;2024-02-21T12:37:19;13.10;94.00
8896;DHT22;4484;48.928;10.066;2024-02-21T12:39:47;13.10;93.00
8896;DHT22;4484;48.928;10.066;2024-02-21T12:42:14;13.00;93.30
8896;DHT22;4484;48.928;10.066;2024-02-21T12:44:41;12.90;92.70
8896;DHT22;4484;48.928;10.066;2024-02-21T12:47:09;12.90;92.00
8896;DHT22;4484;48.928;10.066;2024-02-21T12:49:36;12.80;91.40
8896;DHT22;4484;48.928;10.066;2024-02-21T12:52:04;12.80;91.30
8896;DHT22;4484;48.928;10.066;2024-02-21T12:54:31;12.70;90.90
8896;DHT22;4484;48.928;10.066;2024-02-21T12:56:58;12.70;91.90
8896;DHT22;4484;48.928;10.066;2024-02-21T12:59:29;12.80;92.60
8896;DHT22;4484;48.928;10.066;2024-02-21T13:01:56;12.90;92.50
8896;DHT22;4484;48.928;10.066;2024-02-21T13:04:23;13.10;92.20
8896;DHT22;4484;48.928;10.066;2024-02-21T13:06:51;13.30;92.30
8896;DHT22;4484;48.928;10.066;2024-02-21T13:09:18;13.50;92.80
8896;DHT22;4484;48.928;10.066;2024-02-21T13:11:46;13.70;93.30
8896;DHT22;4484;48.928;10.066;2024-02-21T13:14:13;13.80;91.30
8896;DHT22;4484;48.928;10.066;2024-02-21T13:16:40;13.90;92.10
8896;DHT22;4484;48.928;10.066;2024-02-21T13:19:08;13.90;87.90
8896;DHT22;4484;48.928;10.066;2024-02-21T13:21:35;14.00;90.90
8896;DHT22;4484;48.928;10.066;2024-02-21T13:24:03;14.10;85.90
8896;DHT22;4484;48.928;10.066;2024-02-21T13:26:30;14.10;86.00
8896;DHT22;4484;48.928;10.066;2024-02-21T13:28:57;14.00;84.60
8896;DHT22;4484;48.928;10.066;2024-02-21T13:31:24;14.00;85.70
8896;DHT22;4484;48.928;10.066;2024-02-21T13:33:52;13.90;87.90
8896;DHT22;4484;48.928;10.066;2024-02-21T13:36:19;14.10;85.80
8896;DHT22;4484;48.928;10.066;2024-02-21T13:38:46;14.00;84.30
8896;DHT22;4484;48.928;10.066;2024-02-21T13:41:14;14.10;85.70
8896;DHT22;4484;48.928;10.066;2024-02-21T13:43:41;14.10;85.70
8896;DHT22;4484;48.928;10.066;2024-02-21T13:46:08;14.10;86.60
8896;DHT22;4484;48.928;10.066;2024-02-21T13:48:38;14.00;85.10
8896;DHT22;4484;48.928;10.066;2024-02-21T13:51:05;13.80;86.90
8896;DHT22;4484;48.928;10.066;2024-02-21T13:53:32;13.80;88.50
8896;DHT22;4484;48.928;10.066;2024-02-21T13:56:00;13.80;87.20
8896;DHT22;4484;48.928;10.066;2024-02-21T13:58:27;13.70;86.30
8896;DHT22;4484;48.928;10.066;2024-02-21T14:00:54;13.60;85.50
8896;DHT22;4484;48.928;10.066;2024-02-21T14:03:23;13.50;86.10
8896;DHT22;4484;48.928;10.066;2024-02-21T14:05:50;13.40;88.50
8896;DHT22;4484;48.928;10.066;2024-02-21T14:08:17;13.30;90.50
8896;DHT22;4484;48.928;10.066;2024-02-21T14:10:45;13.30;91.00
8896;DHT22;4484;48.928;10.066;2024-02-21T14:13:12;13.30;90.90
8896;DHT22;4484;48.928;10.066;2024-02-21T14:15:41;13.30;91.40
8896;DHT22;4484;48.928;10.066;2024-02-21T14:18:09;13.30;88.00
8896;DHT22;4484;48.928;10.066;2024-02-21T14:20:37;13.30;89.70
8896;DHT22;4484;48.928;10.066;2024-02-21T14:23:04;13.20;91.00
8896;DHT22;4484;48.928;10.066;2024-02-21T14:25:31;13.20;91.70
8896;DHT22;4484;48.928;10.066;2024-02-21T14:28:00;13.10;92.10
8896;DHT22;4484;48.928;10.066;2024-02-21T14:30:27;13.00;91.70
8896;DHT22;4484;48.928;10.066;2024-02-21T14:32:55;12.90;92.00
8896;DHT22;4484;48.928;10.066;2024-02-21T14:35:22;12.90;92.10
8896;DHT22;4484;48.928;10.066;2024-02-21T14:37:49;12.80;92.40
8896;DHT22;4484;48.928;10.066;2024-02-21T14:40:16;12.70;91.80
8896;DHT22;4484;48.928;10.066;2024-02-21T14:42:43;12.60;91.50
8896;DHT22;4484;48.928;10.066;2024-02-21T14:45:10;12.60;92.20
8896;DHT22;4484;48.928;10.066;2024-02-21T14:47:37;12.50;92.00
8896;DHT22;4484;48.928;10.066;2024-02-21T14:50:04;12.50;92.80
8896;DHT22;4484;48.928;10.066;2024-02-21T14:52:32;12.50;92.70
8896;DHT22;4484;48.928;10.066;2024-02-21T14:55:00;12.40;92.80
8896;DHT22;4484;48.928;10.066;2024-02-21T14:57:29;12.40;93.10
8896;DHT22;4484;48.928;10.066;2024-02-21T14:59:56;12.40;93.00
8896;DHT22;4484;48.928;10.066;2024-02-21T15:02:26;12.30;93.00
8896;DHT22;4484;48.928;10.066;2024-02-21T15:04:55;12.20;93.80
8896;DHT22;4484;48.928;10.066;2024-02-21T15:07:22;12.20;94.60
8896;DHT22;4484;48.928;10.066;2024-02-21T15:09:52;12.20;95.20
8896;DHT22;4484;48.928;10.066;2024-02-21T15:12:19;12.10;95.40
8896;DHT22;4484;48.928;10.066;2024-02-21T15:14:46;12.10;95.50
8896;DHT22;4484;48.928;10.066;2024-02-21T15:17:13;12.00;96.20
8896;DHT22;4484;48.928;10.066;2024-02-21T15:19:40;12.00;97.20
8896;DHT22;4484;48.928;10.066;2024-02-21T15:22:11;11.90;96.90
8896;DHT22;4484;48.928;10.066;2024-02-21T15:24:41;11.90;96.30
8896;DHT22;4484;48.928;10.066;2024-02-21T15:27:08;11.90;96.80
8896;DHT22;4484;48.928;10.066;2024-02-21T15:29:36;11.80;96.60
8896;DHT22;4484;48.928;10.066;2024-02-21T15:32:03;11.80;96.20
8896;DHT22;4484;48.928;10.066;2024-02-21T15:34:31;11.80;95.90
8896;DHT22;4484;48.928;10.066;2024-02-21T15:36:58;11.70;96.40
8896;DHT22;4484;48.928;10.066;2024-02-21T15:39:26;11.70;96.10
8896;DHT22;4484;48.928;10.066;2024-02-21T15:41:55;11.70;96.20
8896;DHT22;4484;48.928;10.066;2024-02-21T15:44:23;11.70;95.60
8896;DHT22;4484;48.928;10.066;2024-02-21T15:46:50;11.60;96.40
8896;DHT22;4484;48.928;10.066;2024-02-21T15:49:20;11.70;96.30
8896;DHT22;4484;48.928;10.066;2024-02-21T15:51:48;11.60;96.00
8896;DHT22;4484;48.928;10.066;2024-02-21T15:54:15;11.60;96.00
8896;DHT22;4484;48.928;10.066;2024-02-21T15:56:49;11.50;96.00
8896;DHT22;4484;48.928;10.066;2024-02-21T15:59:17;11.40;95.20
8896;DHT22;4484;48.928;10.066;2024-02-21T16:01:44;11.30;95.50